sensor_id;sensor_type;location;lat;lon;timestamp;P1;durP1;ratioP1;P2;durP2;ratioP2
12900;SDS011;6518;50.930;5.344;2022-08-21T00:02:20;5.47;;;2.70;;
12900;SDS011;6518;50.930;5.344;2022-08-21T00:04:52;5.57;;;3.00;;
12900;SDS011;6518;50.930;5.344;2022-08-21T00:07:19;7.03;;;2.70;;
12900;SDS011;6518;50.930;5.344;2022-08-21T00:09:48;4.68;;;2.58;;
12900;SDS011;6518;50.930;5.344;2022-08-21T00:12:15;5.70;;;2.65;;
12900;SDS011;6518;50.930;5.344;2022-08-21T00:14:41;6.68;;;2.72;;
12900;SDS011;6518;50.930;5.344;2022-08-21T00:17:08;7.07;;;3.10;;
12900;SDS011;6518;50.930;5.344;2022-08-21T00:19:35;6.72;;;2.35;;
12900;SDS011;6518;50.930;5.344;2022-08-21T00:22:02;5.65;;;2.72;;
12900;SDS011;6518;50.930;5.344;2022-08-21T00:24:30;6.90;;;3.03;;
12900;SDS011;6518;50.930;5.344;2022-08-21T00:26:58;5.88;;;2.83;;
12900;SDS011;6518;50.930;5.344;2022-08-21T00:29:25;5.60;;;2.75;;
12900;SDS011;6518;50.930;5.344;2022-08-21T00:31:52;7.07;;;2.70;;
12900;SDS011;6518;50.930;5.344;2022-08-21T00:34:19;6.50;;;3.00;;
12900;SDS011;6518;50.930;5.344;2022-08-21T00:36:46;4.75;;;2.72;;
12900;SDS011;6518;50.930;5.344;2022-08-21T00:39:13;6.47;;;2.75;;
12900;SDS011;6518;50.930;5.344;2022-08-21T00:41:40;6.97;;;2.95;;
12900;SDS011;6518;50.930;5.344;2022-08-21T00:44:11;6.70;;;3.10;;
12900;SDS011;6518;50.930;5.344;2022-08-21T00:46:39;8.25;;;3.10;;
12900;SDS011;6518;50.930;5.344;2022-08-21T00:49:07;11.85;;;3.15;;
12900;SDS011;6518;50.930;5.344;2022-08-21T00:51:36;5.68;;;2.60;;
12900;SDS011;6518;50.930;5.344;2022-08-21T00:54:06;6.60;;;2.80;;
12900;SDS011;6518;50.930;5.344;2022-08-21T00:56:34;6.15;;;2.85;;
12900;SDS011;6518;50.930;5.344;2022-08-21T00:59:01;6.38;;;2.80;;
12900;SDS011;6518;50.930;5.344;2022-08-21T01:01:30;7.28;;;2.75;;
12900;SDS011;6518;50.930;5.344;2022-08-21T01:03:57;5.85;;;2.83;;
12900;SDS011;6518;50.930;5.344;2022-08-21T01:06:24;4.07;;;2.25;;
12900;SDS011;6518;50.930;5.344;2022-08-21T01:08:51;7.03;;;3.00;;
12900;SDS011;6518;50.930;5.344;2022-08-21T01:11:18;7.40;;;2.67;;
12900;SDS011;6518;50.930;5.344;2022-08-21T01:13:46;5.20;;;3.00;;
12900;SDS011;6518;50.930;5.344;2022-08-21T01:16:15;7.20;;;3.03;;
12900;SDS011;6518;50.930;5.344;2022-08-21T01:18:46;7.45;;;2.90;;
12900;SDS011;6518;50.930;5.344;2022-08-21T01:21:16;4.70;;;2.65;;
12900;SDS011;6518;50.930;5.344;2022-08-21T01:23:46;6.32;;;2.72;;
12900;SDS011;6518;50.930;5.344;2022-08-21T01:26:14;6.30;;;2.80;;
12900;SDS011;6518;50.930;5.344;2022-08-21T01:28:45;7.38;;;2.90;;
12900;SDS011;6518;50.930;5.344;2022-08-21T01:31:18;7.93;;;2.90;;
12900;SDS011;6518;50.930;5.344;2022-08-21T01:33:47;5.55;;;2.63;;
12900;SDS011;6518;50.930;5.344;2022-08-21T01:36:15;4.70;;;2.70;;
12900;SDS011;6518;50.930;5.344;2022-08-21T01:38:42;8.05;;;2.95;;
12900;SDS011;6518;50.930;5.344;2022-08-21T01:41:09;7.43;;;2.92;;
12900;SDS011;6518;50.930;5.344;2022-08-21T01:43:36;6.53;;;3.05;;
12900;SDS011;6518;50.930;5.344;2022-08-21T01:46:04;9.52;;;2.80;;
12900;SDS011;6518;50.930;5.344;2022-08-21T01:48:30;8.57;;;2.95;;
12900;SDS011;6518;50.930;5.344;2022-08-21T01:50:58;8.88;;;3.20;;
12900;SDS011;6518;50.930;5.344;2022-08-21T01:53:26;7.22;;;2.78;;
12900;SDS011;6518;50.930;5.344;2022-08-21T01:55:53;7.45;;;2.78;;
12900;SDS011;6518;50.930;5.344;2022-08-21T01:58:20;7.82;;;2.90;;
12900;SDS011;6518;50.930;5.344;2022-08-21T02:00:47;7.25;;;2.83;;
12900;SDS011;6518;50.930;5.344;2022-08-21T02:03:14;6.15;;;3.03;;
12900;SDS011;6518;50.930;5.344;2022-08-21T02:05:41;6.15;;;2.95;;
12900;SDS011;6518;50.930;5.344;2022-08-21T02:08:08;5.10;;;3.00;;
12900;SDS011;6518;50.930;5.344;2022-08-21T02:10:36;6.18;;;3.20;;
12900;SDS011;6518;50.930;5.344;2022-08-21T02:13:03;5.78;;;2.80;;
12900;SDS011;6518;50.930;5.344;2022-08-21T02:15:32;5.35;;;2.72;;
12900;SDS011;6518;50.930;5.344;2022-08-21T02:18:00;6.57;;;3.00;;
12900;SDS011;6518;50.930;5.344;2022-08-21T02:20:30;7.10;;;2.72;;
12900;SDS011;6518;50.930;5.344;2022-08-21T02:22:59;5.88;;;2.88;;
12900;SDS011;6518;50.930;5.344;2022-08-21T02:25:27;6.32;;;3.05;;
12900;SDS011;6518;50.930;5.344;2022-08-21T02:27:57;7.00;;;3.10;;
12900;SDS011;6518;50.930;5.344;2022-08-21T02:30:26;5.75;;;3.17;;
12900;SDS011;6518;50.930;5.344;2022-08-21T02:32:55;10.23;;;3.22;;
12900;SDS011;6518;50.930;5.344;2022-08-21T02:35:23;7.30;;;3.03;;
12900;SDS011;6518;50.930;5.344;2022-08-21T02:37:51;5.65;;;3.13;;
12900;SDS011;6518;50.930;5.344;2022-08-21T02:40:21;6.82;;;2.85;;
12900;SDS011;6518;50.930;5.344;2022-08-21T02:42:49;6.60;;;2.92;;
12900;SDS011;6518;50.930;5.344;2022-08-21T02:45:18;10.50;;;2.90;;
12900;SDS011;6518;50.930;5.344;2022-08-21T02:47:48;6.07;;;2.90;;
12900;SDS011;6518;50.930;5.344;2022-08-21T02:50:18;7.97;;;3.25;;
12900;SDS011;6518;50.930;5.344;2022-08-21T02:52:46;7.78;;;4.40;;
12900;SDS011;6518;50.930;5.344;2022-08-21T02:55:14;10.15;;;4.00;;
12900;SDS011;6518;50.930;5.344;2022-08-21T02:57:41;10.05;;;3.08;;
12900;SDS011;6518;50.930;5.344;2022-08-21T03:00:09;9.48;;;3.10;;
12900;SDS011;6518;50.930;5.344;2022-08-21T03:02:39;6.90;;;3.17;;
12900;SDS011;6518;50.930;5.344;2022-08-21T03:05:07;6.38;;;3.17;;
12900;SDS011;6518;50.930;5.344;2022-08-21T03:07:35;6.53;;;2.78;;
12900;SDS011;6518;50.930;5.344;2022-08-21T03:10:04;8.30;;;3.15;;
12900;SDS011;6518;50.930;5.344;2022-08-21T03:12:31;6.72;;;3.30;;
12900;SDS011;6518;50.930;5.344;2022-08-21T03:15:00;9.15;;;3.13;;
12900;SDS011;6518;50.930;5.344;2022-08-21T03:17:27;6.68;;;3.20;;
12900;SDS011;6518;50.930;5.344;2022-08-21T03:19:56;10.07;;;3.55;;
12900;SDS011;6518;50.930;5.344;2022-08-21T03:22:23;9.68;;;3.33;;
12900;SDS011;6518;50.930;5.344;2022-08-21T03:24:50;7.30;;;2.80;;
12900;SDS011;6518;50.930;5.344;2022-08-21T03:27:17;6.05;;;2.53;;
12900;SDS011;6518;50.930;5.344;2022-08-21T03:29:44;5.20;;;2.58;;
12900;SDS011;6518;50.930;5.344;2022-08-21T03:32:11;7.65;;;2.85;;
12900;SDS011;6518;50.930;5.344;2022-08-21T03:34:38;7.65;;;3.20;;
12900;SDS011;6518;50.930;5.344;2022-08-21T03:37:07;5.20;;;2.75;;
12900;SDS011;6518;50.930;5.344;2022-08-21T03:39:34;6.80;;;3.10;;
12900;SDS011;6518;50.930;5.344;2022-08-21T03:42:02;10.40;;;3.20;;
12900;SDS011;6518;50.930;5.344;2022-08-21T03:44:29;7.00;;;2.72;;
12900;SDS011;6518;50.930;5.344;2022-08-21T03:46:57;7.95;;;2.80;;
12900;SDS011;6518;50.930;5.344;2022-08-21T03:49:24;10.57;;;3.00;;
12900;SDS011;6518;50.930;5.344;2022-08-21T03:51:51;7.03;;;3.00;;
12900;SDS011;6518;50.930;5.344;2022-08-21T03:54:19;8.32;;;3.20;;
12900;SDS011;6518;50.930;5.344;2022-08-21T03:56:46;5.40;;;2.75;;
12900;SDS011;6518;50.930;5.344;2022-08-21T03:59:13;6.07;;;2.70;;
12900;SDS011;6518;50.930;5.344;2022-08-21T04:01:50;11.00;;;2.90;;
12900;SDS011;6518;50.930;5.344;2022-08-21T04:04:18;7.25;;;2.53;;
12900;SDS011;6518;50.930;5.344;2022-08-21T04:06:45;8.18;;;2.72;;
12900;SDS011;6518;50.930;5.344;2022-08-21T04:09:12;8.20;;;3.03;;
12900;SDS011;6518;50.930;5.344;2022-08-21T04:11:41;7.20;;;2.85;;
12900;SDS011;6518;50.930;5.344;2022-08-21T04:14:08;6.13;;;2.38;;
12900;SDS011;6518;50.930;5.344;2022-08-21T04:16:35;9.75;;;3.00;;
12900;SDS011;6518;50.930;5.344;2022-08-21T04:19:02;9.23;;;2.85;;
12900;SDS011;6518;50.930;5.344;2022-08-21T04:21:29;9.80;;;2.97;;
12900;SDS011;6518;50.930;5.344;2022-08-21T04:23:57;10.43;;;3.03;;
12900;SDS011;6518;50.930;5.344;2022-08-21T04:26:24;9.38;;;2.58;;
12900;SDS011;6518;50.930;5.344;2022-08-21T04:28:53;8.68;;;2.88;;
12900;SDS011;6518;50.930;5.344;2022-08-21T04:31:22;6.80;;;2.95;;
12900;SDS011;6518;50.930;5.344;2022-08-21T04:33:50;6.18;;;2.53;;
12900;SDS011;6518;50.930;5.344;2022-08-21T04:36:17;9.23;;;3.30;;
12900;SDS011;6518;50.930;5.344;2022-08-21T04:38:44;7.72;;;2.78;;
12900;SDS011;6518;50.930;5.344;2022-08-21T04:41:11;9.93;;;3.20;;
12900;SDS011;6518;50.930;5.344;2022-08-21T04:43:38;6.85;;;2.65;;
12900;SDS011;6518;50.930;5.344;2022-08-21T04:46:07;6.47;;;2.78;;
12900;SDS011;6518;50.930;5.344;2022-08-21T04:48:34;5.45;;;2.50;;
12900;SDS011;6518;50.930;5.344;2022-08-21T04:51:01;9.68;;;2.72;;
12900;SDS011;6518;50.930;5.344;2022-08-21T04:53:34;10.45;;;2.90;;
12900;SDS011;6518;50.930;5.344;2022-08-21T04:56:05;6.30;;;2.63;;
12900;SDS011;6518;50.930;5.344;2022-08-21T04:58:35;8.30;;;2.65;;
12900;SDS011;6518;50.930;5.344;2022-08-21T05:01:04;7.03;;;2.60;;
12900;SDS011;6518;50.930;5.344;2022-08-21T05:03:36;9.00;;;2.72;;
12900;SDS011;6518;50.930;5.344;2022-08-21T05:06:06;6.03;;;2.50;;
12900;SDS011;6518;50.930;5.344;2022-08-21T05:08:36;6.50;;;2.45;;
12900;SDS011;6518;50.930;5.344;2022-08-21T05:11:04;7.75;;;2.45;;
12900;SDS011;6518;50.930;5.344;2022-08-21T05:13:31;7.15;;;2.50;;
12900;SDS011;6518;50.930;5.344;2022-08-21T05:15:58;8.27;;;2.38;;
12900;SDS011;6518;50.930;5.344;2022-08-21T05:18:26;6.53;;;2.67;;
12900;SDS011;6518;50.930;5.344;2022-08-21T05:20:53;5.63;;;2.10;;
12900;SDS011;6518;50.930;5.344;2022-08-21T05:23:20;5.80;;;2.25;;
12900;SDS011;6518;50.930;5.344;2022-08-21T05:25:47;3.63;;;2.00;;
12900;SDS011;6518;50.930;5.344;2022-08-21T05:28:14;5.63;;;2.30;;
12900;SDS011;6518;50.930;5.344;2022-08-21T05:30:41;6.03;;;2.22;;
12900;SDS011;6518;50.930;5.344;2022-08-21T05:33:08;4.60;;;2.05;;
12900;SDS011;6518;50.930;5.344;2022-08-21T05:35:37;7.65;;;2.45;;
12900;SDS011;6518;50.930;5.344;2022-08-21T05:38:04;7.40;;;2.97;;
12900;SDS011;6518;50.930;5.344;2022-08-21T05:40:32;6.85;;;2.40;;
12900;SDS011;6518;50.930;5.344;2022-08-21T05:42:59;6.30;;;2.10;;
12900;SDS011;6518;50.930;5.344;2022-08-21T05:45:27;4.75;;;2.22;;
12900;SDS011;6518;50.930;5.344;2022-08-21T05:47:56;7.65;;;2.60;;
12900;SDS011;6518;50.930;5.344;2022-08-21T05:50:23;7.35;;;2.85;;
12900;SDS011;6518;50.930;5.344;2022-08-21T05:52:52;7.82;;;2.40;;
12900;SDS011;6518;50.930;5.344;2022-08-21T05:55:18;5.78;;;2.55;;
12900;SDS011;6518;50.930;5.344;2022-08-21T05:57:46;7.57;;;2.80;;
12900;SDS011;6518;50.930;5.344;2022-08-21T06:00:13;5.95;;;2.60;;
12900;SDS011;6518;50.930;5.344;2022-08-21T06:02:41;8.38;;;2.58;;
12900;SDS011;6518;50.930;5.344;2022-08-21T06:05:08;7.47;;;2.40;;
12900;SDS011;6518;50.930;5.344;2022-08-21T06:07:35;6.72;;;2.33;;
12900;SDS011;6518;50.930;5.344;2022-08-21T06:10:04;7.43;;;2.47;;
12900;SDS011;6518;50.930;5.344;2022-08-21T06:12:31;8.65;;;3.08;;
12900;SDS011;6518;50.930;5.344;2022-08-21T06:14:58;8.70;;;2.72;;
12900;SDS011;6518;50.930;5.344;2022-08-21T06:17:25;6.28;;;2.05;;
12900;SDS011;6518;50.930;5.344;2022-08-21T06:19:52;10.27;;;2.75;;
12900;SDS011;6518;50.930;5.344;2022-08-21T06:22:20;7.20;;;2.60;;
12900;SDS011;6518;50.930;5.344;2022-08-21T06:24:47;5.47;;;2.20;;
12900;SDS011;6518;50.930;5.344;2022-08-21T06:27:15;5.70;;;2.30;;
12900;SDS011;6518;50.930;5.344;2022-08-21T06:29:42;8.30;;;2.70;;
12900;SDS011;6518;50.930;5.344;2022-08-21T06:32:11;7.25;;;3.00;;
12900;SDS011;6518;50.930;5.344;2022-08-21T06:34:38;6.72;;;2.90;;
12900;SDS011;6518;50.930;5.344;2022-08-21T06:37:07;6.88;;;2.70;;
12900;SDS011;6518;50.930;5.344;2022-08-21T06:39:34;9.10;;;3.25;;
12900;SDS011;6518;50.930;5.344;2022-08-21T06:42:00;6.97;;;2.30;;
12900;SDS011;6518;50.930;5.344;2022-08-21T06:44:29;6.72;;;2.65;;
12900;SDS011;6518;50.930;5.344;2022-08-21T06:46:56;6.82;;;2.60;;
12900;SDS011;6518;50.930;5.344;2022-08-21T06:49:23;6.82;;;2.45;;
12900;SDS011;6518;50.930;5.344;2022-08-21T06:51:50;8.02;;;2.55;;
12900;SDS011;6518;50.930;5.344;2022-08-21T06:54:17;6.13;;;2.50;;
12900;SDS011;6518;50.930;5.344;2022-08-21T06:56:44;8.57;;;2.42;;
12900;SDS011;6518;50.930;5.344;2022-08-21T06:59:11;6.18;;;2.20;;
12900;SDS011;6518;50.930;5.344;2022-08-21T07:01:39;9.85;;;2.55;;
12900;SDS011;6518;50.930;5.344;2022-08-21T07:04:06;8.95;;;2.78;;
12900;SDS011;6518;50.930;5.344;2022-08-21T07:06:33;8.50;;;2.60;;
12900;SDS011;6518;50.930;5.344;2022-08-21T07:09:00;9.77;;;2.40;;
12900;SDS011;6518;50.930;5.344;2022-08-21T07:11:28;6.25;;;2.67;;
12900;SDS011;6518;50.930;5.344;2022-08-21T07:13:55;6.90;;;2.40;;
12900;SDS011;6518;50.930;5.344;2022-08-21T07:16:23;6.55;;;2.50;;
12900;SDS011;6518;50.930;5.344;2022-08-21T07:18:51;8.38;;;2.20;;
12900;SDS011;6518;50.930;5.344;2022-08-21T07:21:18;7.40;;;2.53;;
12900;SDS011;6518;50.930;5.344;2022-08-21T07:23:46;7.97;;;2.50;;
12900;SDS011;6518;50.930;5.344;2022-08-21T07:26:16;6.68;;;2.53;;
12900;SDS011;6518;50.930;5.344;2022-08-21T07:28:45;6.30;;;1.83;;
12900;SDS011;6518;50.930;5.344;2022-08-21T07:31:13;8.57;;;2.50;;
12900;SDS011;6518;50.930;5.344;2022-08-21T07:33:42;6.88;;;2.35;;
12900;SDS011;6518;50.930;5.344;2022-08-21T07:36:11;7.07;;;2.17;;
12900;SDS011;6518;50.930;5.344;2022-08-21T07:38:38;5.75;;;2.30;;
12900;SDS011;6518;50.930;5.344;2022-08-21T07:41:07;6.72;;;2.10;;
12900;SDS011;6518;50.930;5.344;2022-08-21T07:43:39;6.43;;;2.00;;
12900;SDS011;6518;50.930;5.344;2022-08-21T07:46:06;7.40;;;2.33;;
12900;SDS011;6518;50.930;5.344;2022-08-21T07:48:33;3.47;;;1.70;;
12900;SDS011;6518;50.930;5.344;2022-08-21T07:51:01;5.60;;;2.15;;
12900;SDS011;6518;50.930;5.344;2022-08-21T07:53:33;6.68;;;2.00;;
12900;SDS011;6518;50.930;5.344;2022-08-21T07:56:00;6.28;;;2.10;;
12900;SDS011;6518;50.930;5.344;2022-08-21T07:58:28;4.97;;;1.83;;
12900;SDS011;6518;50.930;5.344;2022-08-21T08:00:55;7.18;;;2.00;;
12900;SDS011;6518;50.930;5.344;2022-08-21T08:03:22;5.50;;;2.10;;
12900;SDS011;6518;50.930;5.344;2022-08-21T08:05:49;7.22;;;2.08;;
12900;SDS011;6518;50.930;5.344;2022-08-21T08:08:16;7.57;;;2.17;;
12900;SDS011;6518;50.930;5.344;2022-08-21T08:10:45;7.30;;;2.42;;
12900;SDS011;6518;50.930;5.344;2022-08-21T08:13:12;6.97;;;2.22;;
12900;SDS011;6518;50.930;5.344;2022-08-21T08:15:39;8.68;;;2.20;;
12900;SDS011;6518;50.930;5.344;2022-08-21T08:18:06;7.28;;;2.40;;
12900;SDS011;6518;50.930;5.344;2022-08-21T08:20:33;4.35;;;1.92;;
12900;SDS011;6518;50.930;5.344;2022-08-21T08:23:00;6.05;;;2.10;;
12900;SDS011;6518;50.930;5.344;2022-08-21T08:25:27;6.63;;;2.20;;
12900;SDS011;6518;50.930;5.344;2022-08-21T08:27:55;7.22;;;2.08;;
12900;SDS011;6518;50.930;5.344;2022-08-21T08:30:22;4.18;;;1.70;;
12900;SDS011;6518;50.930;5.344;2022-08-21T08:32:49;7.63;;;2.10;;
12900;SDS011;6518;50.930;5.344;2022-08-21T08:35:16;7.00;;;2.13;;
12900;SDS011;6518;50.930;5.344;2022-08-21T08:37:44;7.32;;;2.20;;
12900;SDS011;6518;50.930;5.344;2022-08-21T08:40:12;5.07;;;2.10;;
12900;SDS011;6518;50.930;5.344;2022-08-21T08:42:45;4.78;;;1.83;;
12900;SDS011;6518;50.930;5.344;2022-08-21T08:45:17;6.68;;;1.73;;
12900;SDS011;6518;50.930;5.344;2022-08-21T08:47:47;5.80;;;1.67;;
12900;SDS011;6518;50.930;5.344;2022-08-21T08:50:17;5.47;;;1.85;;
12900;SDS011;6518;50.930;5.344;2022-08-21T08:52:48;4.75;;;1.67;;
12900;SDS011;6518;50.930;5.344;2022-08-21T08:55:19;7.35;;;2.03;;
12900;SDS011;6518;50.930;5.344;2022-08-21T08:57:50;6.82;;;1.95;;
12900;SDS011;6518;50.930;5.344;2022-08-21T09:00:20;4.57;;;1.90;;
12900;SDS011;6518;50.930;5.344;2022-08-21T09:02:49;5.43;;;1.80;;
12900;SDS011;6518;50.930;5.344;2022-08-21T09:05:21;5.22;;;1.58;;
12900;SDS011;6518;50.930;5.344;2022-08-21T09:07:53;4.10;;;1.65;;
12900;SDS011;6518;50.930;5.344;2022-08-21T09:10:38;4.63;;;1.60;;
12900;SDS011;6518;50.930;5.344;2022-08-21T09:13:15;7.22;;;1.80;;
12900;SDS011;6518;50.930;5.344;2022-08-21T09:15:50;5.47;;;1.85;;
12900;SDS011;6518;50.930;5.344;2022-08-21T09:18:28;5.72;;;1.98;;
12900;SDS011;6518;50.930;5.344;2022-08-21T09:21:07;3.83;;;1.83;;
12900;SDS011;6518;50.930;5.344;2022-08-21T09:23:43;5.93;;;1.88;;
12900;SDS011;6518;50.930;5.344;2022-08-21T09:26:16;5.63;;;2.30;;
12900;SDS011;6518;50.930;5.344;2022-08-21T09:28:45;5.35;;;2.15;;
12900;SDS011;6518;50.930;5.344;2022-08-21T09:31:22;5.88;;;1.70;;
12900;SDS011;6518;50.930;5.344;2022-08-21T09:33:56;5.32;;;1.83;;
12900;SDS011;6518;50.930;5.344;2022-08-21T09:36:25;6.15;;;1.80;;
12900;SDS011;6518;50.930;5.344;2022-08-21T09:39:00;6.32;;;1.83;;
12900;SDS011;6518;50.930;5.344;2022-08-21T09:41:28;4.95;;;1.63;;
12900;SDS011;6518;50.930;5.344;2022-08-21T09:43:58;5.05;;;1.83;;
12900;SDS011;6518;50.930;5.344;2022-08-21T09:46:27;6.75;;;1.95;;
12900;SDS011;6518;50.930;5.344;2022-08-21T09:48:55;5.07;;;1.35;;
12900;SDS011;6518;50.930;5.344;2022-08-21T09:51:25;5.13;;;1.90;;
12900;SDS011;6518;50.930;5.344;2022-08-21T09:53:55;6.47;;;2.15;;
12900;SDS011;6518;50.930;5.344;2022-08-21T09:56:27;5.00;;;1.45;;
12900;SDS011;6518;50.930;5.344;2022-08-21T09:59:17;8.18;;;1.98;;
12900;SDS011;6518;50.930;5.344;2022-08-21T10:01:49;4.22;;;1.40;;
12900;SDS011;6518;50.930;5.344;2022-08-21T10:04:19;7.20;;;1.75;;
12900;SDS011;6518;50.930;5.344;2022-08-21T10:06:48;4.65;;;1.42;;
12900;SDS011;6518;50.930;5.344;2022-08-21T10:09:16;7.50;;;2.20;;
12900;SDS011;6518;50.930;5.344;2022-08-21T10:11:48;4.53;;;1.63;;
12900;SDS011;6518;50.930;5.344;2022-08-21T10:14:23;3.95;;;1.40;;
12900;SDS011;6518;50.930;5.344;2022-08-21T10:17:03;5.72;;;1.67;;
12900;SDS011;6518;50.930;5.344;2022-08-21T10:19:35;4.90;;;1.85;;
12900;SDS011;6518;50.930;5.344;2022-08-21T10:22:12;4.47;;;1.42;;
12900;SDS011;6518;50.930;5.344;2022-08-21T10:24:52;4.00;;;1.40;;
12900;SDS011;6518;50.930;5.344;2022-08-21T10:27:27;5.32;;;1.60;;
12900;SDS011;6518;50.930;5.344;2022-08-21T10:30:02;4.82;;;1.50;;
12900;SDS011;6518;50.930;5.344;2022-08-21T10:35:27;6.07;;;1.85;;
12900;SDS011;6518;50.930;5.344;2022-08-21T10:38:03;4.72;;;1.65;;
12900;SDS011;6518;50.930;5.344;2022-08-21T10:40:52;4.28;;;1.48;;
12900;SDS011;6518;50.930;5.344;2022-08-21T10:43:27;2.92;;;1.50;;
12900;SDS011;6518;50.930;5.344;2022-08-21T10:46:02;3.15;;;1.40;;
12900;SDS011;6518;50.930;5.344;2022-08-21T10:48:43;6.05;;;1.77;;
12900;SDS011;6518;50.930;5.344;2022-08-21T10:51:15;4.35;;;1.50;;
12900;SDS011;6518;50.930;5.344;2022-08-21T10:53:50;4.07;;;1.70;;
12900;SDS011;6518;50.930;5.344;2022-08-21T10:56:25;4.00;;;1.50;;
12900;SDS011;6518;50.930;5.344;2022-08-21T10:59:07;5.68;;;1.52;;
12900;SDS011;6518;50.930;5.344;2022-08-21T11:01:46;6.55;;;1.58;;
12900;SDS011;6518;50.930;5.344;2022-08-21T11:04:19;3.72;;;1.58;;
12900;SDS011;6518;50.930;5.344;2022-08-21T11:06:53;5.50;;;1.83;;
12900;SDS011;6518;50.930;5.344;2022-08-21T11:09:27;7.43;;;1.80;;
12900;SDS011;6518;50.930;5.344;2022-08-21T11:11:57;5.72;;;1.52;;
12900;SDS011;6518;50.930;5.344;2022-08-21T11:14:31;5.35;;;1.83;;
12900;SDS011;6518;50.930;5.344;2022-08-21T11:17:06;6.72;;;1.90;;
12900;SDS011;6518;50.930;5.344;2022-08-21T11:19:38;6.15;;;1.77;;
12900;SDS011;6518;50.930;5.344;2022-08-21T11:22:13;6.22;;;1.77;;
12900;SDS011;6518;50.930;5.344;2022-08-21T11:24:44;5.20;;;1.70;;
12900;SDS011;6518;50.930;5.344;2022-08-21T11:27:18;7.30;;;1.70;;
12900;SDS011;6518;50.930;5.344;2022-08-21T11:29:50;4.75;;;1.60;;
12900;SDS011;6518;50.930;5.344;2022-08-21T11:32:41;5.35;;;1.83;;
12900;SDS011;6518;50.930;5.344;2022-08-21T11:35:36;7.80;;;2.15;;
12900;SDS011;6518;50.930;5.344;2022-08-21T11:38:11;8.38;;;1.98;;
12900;SDS011;6518;50.930;5.344;2022-08-21T11:40:48;5.60;;;1.70;;
12900;SDS011;6518;50.930;5.344;2022-08-21T11:43:25;5.53;;;1.90;;
12900;SDS011;6518;50.930;5.344;2022-08-21T11:46:03;3.92;;;1.52;;
12900;SDS011;6518;50.930;5.344;2022-08-21T11:48:40;6.95;;;1.80;;
12900;SDS011;6518;50.930;5.344;2022-08-21T11:51:15;6.00;;;2.05;;
12900;SDS011;6518;50.930;5.344;2022-08-21T11:53:47;6.43;;;1.83;;
12900;SDS011;6518;50.930;5.344;2022-08-21T11:56:18;5.80;;;2.03;;
12900;SDS011;6518;50.930;5.344;2022-08-21T11:58:48;5.25;;;1.73;;
12900;SDS011;6518;50.930;5.344;2022-08-21T12:01:19;8.45;;;2.00;;
12900;SDS011;6518;50.930;5.344;2022-08-21T12:03:52;5.82;;;2.05;;
12900;SDS011;6518;50.930;5.344;2022-08-21T12:06:31;5.65;;;1.77;;
12900;SDS011;6518;50.930;5.344;2022-08-21T12:09:02;5.22;;;1.60;;
12900;SDS011;6518;50.930;5.344;2022-08-21T12:11:31;5.82;;;1.70;;
12900;SDS011;6518;50.930;5.344;2022-08-21T12:13:59;5.93;;;1.88;;
12900;SDS011;6518;50.930;5.344;2022-08-21T12:16:38;5.45;;;1.85;;
12900;SDS011;6518;50.930;5.344;2022-08-21T12:19:07;5.85;;;1.95;;
12900;SDS011;6518;50.930;5.344;2022-08-21T12:21:48;5.68;;;1.85;;
12900;SDS011;6518;50.930;5.344;2022-08-21T12:24:18;6.53;;;1.90;;
12900;SDS011;6518;50.930;5.344;2022-08-21T12:26:57;7.72;;;2.03;;
12900;SDS011;6518;50.930;5.344;2022-08-21T12:29:27;8.70;;;1.98;;
12900;SDS011;6518;50.930;5.344;2022-08-21T12:31:57;6.88;;;2.10;;
12900;SDS011;6518;50.930;5.344;2022-08-21T12:34:28;8.48;;;2.05;;
12900;SDS011;6518;50.930;5.344;2022-08-21T12:37:02;9.93;;;1.77;;
12900;SDS011;6518;50.930;5.344;2022-08-21T12:39:33;6.35;;;2.10;;
12900;SDS011;6518;50.930;5.344;2022-08-21T12:42:05;6.05;;;2.38;;
12900;SDS011;6518;50.930;5.344;2022-08-21T12:44:39;8.57;;;3.30;;
12900;SDS011;6518;50.930;5.344;2022-08-21T12:47:13;7.47;;;2.47;;
12900;SDS011;6518;50.930;5.344;2022-08-21T12:49:44;7.88;;;2.13;;
12900;SDS011;6518;50.930;5.344;2022-08-21T12:52:21;6.78;;;2.05;;
12900;SDS011;6518;50.930;5.344;2022-08-21T12:54:50;7.63;;;2.08;;
12900;SDS011;6518;50.930;5.344;2022-08-21T12:57:18;6.60;;;1.73;;
12900;SDS011;6518;50.930;5.344;2022-08-21T12:59:51;6.20;;;1.90;;
12900;SDS011;6518;50.930;5.344;2022-08-21T13:02:20;8.02;;;2.00;;
12900;SDS011;6518;50.930;5.344;2022-08-21T13:04:49;7.82;;;2.40;;
12900;SDS011;6518;50.930;5.344;2022-08-21T13:07:20;7.38;;;2.20;;
12900;SDS011;6518;50.930;5.344;2022-08-21T13:09:53;8.77;;;1.98;;
12900;SDS011;6518;50.930;5.344;2022-08-21T13:12:23;6.97;;;2.03;;
12900;SDS011;6518;50.930;5.344;2022-08-21T13:14:51;8.93;;;2.55;;
12900;SDS011;6518;50.930;5.344;2022-08-21T13:17:21;6.00;;;2.75;;
12900;SDS011;6518;50.930;5.344;2022-08-21T13:19:58;5.30;;;2.38;;
12900;SDS011;6518;50.930;5.344;2022-08-21T13:22:28;7.70;;;1.83;;
12900;SDS011;6518;50.930;5.344;2022-08-21T13:24:55;5.30;;;1.67;;
12900;SDS011;6518;50.930;5.344;2022-08-21T13:27:24;8.25;;;2.25;;
12900;SDS011;6518;50.930;5.344;2022-08-21T13:30:07;9.50;;;2.42;;
12900;SDS011;6518;50.930;5.344;2022-08-21T13:32:39;6.88;;;2.05;;
12900;SDS011;6518;50.930;5.344;2022-08-21T13:35:11;5.45;;;1.83;;
12900;SDS011;6518;50.930;5.344;2022-08-21T13:37:43;5.85;;;1.80;;
12900;SDS011;6518;50.930;5.344;2022-08-21T13:40:13;10.63;;;2.22;;
12900;SDS011;6518;50.930;5.344;2022-08-21T13:42:42;6.70;;;1.90;;
12900;SDS011;6518;50.930;5.344;2022-08-21T13:45:12;5.90;;;1.70;;
12900;SDS011;6518;50.930;5.344;2022-08-21T13:47:41;4.20;;;1.55;;
12900;SDS011;6518;50.930;5.344;2022-08-21T13:50:09;6.93;;;1.95;;
12900;SDS011;6518;50.930;5.344;2022-08-21T13:52:48;5.40;;;1.98;;
12900;SDS011;6518;50.930;5.344;2022-08-21T13:55:20;6.75;;;2.00;;
12900;SDS011;6518;50.930;5.344;2022-08-21T13:57:47;7.03;;;1.83;;
12900;SDS011;6518;50.930;5.344;2022-08-21T14:00:26;8.65;;;2.10;;
12900;SDS011;6518;50.930;5.344;2022-08-21T14:02:59;8.95;;;2.05;;
12900;SDS011;6518;50.930;5.344;2022-08-21T14:05:34;6.45;;;1.83;;
12900;SDS011;6518;50.930;5.344;2022-08-21T14:08:05;6.25;;;2.10;;
12900;SDS011;6518;50.930;5.344;2022-08-21T14:10:35;4.60;;;1.70;;
12900;SDS011;6518;50.930;5.344;2022-08-21T14:13:07;4.88;;;1.88;;
12900;SDS011;6518;50.930;5.344;2022-08-21T14:15:46;8.43;;;2.05;;
12900;SDS011;6518;50.930;5.344;2022-08-21T14:18:21;5.97;;;1.90;;
12900;SDS011;6518;50.930;5.344;2022-08-21T14:20:50;5.70;;;1.90;;
12900;SDS011;6518;50.930;5.344;2022-08-21T14:23:24;4.30;;;1.73;;
12900;SDS011;6518;50.930;5.344;2022-08-21T14:25:52;7.60;;;1.63;;
12900;SDS011;6518;50.930;5.344;2022-08-21T14:28:25;6.65;;;2.05;;
12900;SDS011;6518;50.930;5.344;2022-08-21T14:30:55;6.38;;;1.75;;
12900;SDS011;6518;50.930;5.344;2022-08-21T14:33:23;6.80;;;2.15;;
12900;SDS011;6518;50.930;5.344;2022-08-21T14:35:52;7.43;;;2.22;;
12900;SDS011;6518;50.930;5.344;2022-08-21T14:38:20;10.50;;;5.32;;
12900;SDS011;6518;50.930;5.344;2022-08-21T14:40:50;6.07;;;1.92;;
12900;SDS011;6518;50.930;5.344;2022-08-21T14:43:20;6.60;;;1.95;;
12900;SDS011;6518;50.930;5.344;2022-08-21T14:45:47;6.63;;;1.88;;
12900;SDS011;6518;50.930;5.344;2022-08-21T14:48:14;6.20;;;1.88;;
12900;SDS011;6518;50.930;5.344;2022-08-21T14:50:41;6.43;;;2.03;;
12900;SDS011;6518;50.930;5.344;2022-08-21T14:53:08;7.47;;;2.05;;
12900;SDS011;6518;50.930;5.344;2022-08-21T14:55:35;8.23;;;2.35;;
12900;SDS011;6518;50.930;5.344;2022-08-21T14:58:18;4.90;;;1.75;;
12900;SDS011;6518;50.930;5.344;2022-08-21T15:00:48;4.68;;;2.10;;
12900;SDS011;6518;50.930;5.344;2022-08-21T15:03:15;5.82;;;2.08;;
12900;SDS011;6518;50.930;5.344;2022-08-21T15:05:42;5.22;;;1.50;;
12900;SDS011;6518;50.930;5.344;2022-08-21T15:08:09;4.45;;;1.60;;
12900;SDS011;6518;50.930;5.344;2022-08-21T15:10:36;7.63;;;2.08;;
12900;SDS011;6518;50.930;5.344;2022-08-21T15:13:03;6.28;;;1.95;;
12900;SDS011;6518;50.930;5.344;2022-08-21T15:15:34;4.55;;;1.73;;
12900;SDS011;6518;50.930;5.344;2022-08-21T15:18:05;8.38;;;2.20;;
12900;SDS011;6518;50.930;5.344;2022-08-21T15:20:32;3.75;;;1.70;;